sensor_id;sensor_type;location;lat;lon;timestamp;P1;durP1;ratioP1;P2;durP2;ratioP2
70927;SDS011;58587;53.034;18.576;2023-06-14T12:02:53;6.75;;;3.97;;
70927;SDS011;58587;53.034;18.576;2023-06-14T12:05:22;6.82;;;3.80;;
70927;SDS011;58587;53.034;18.576;2023-06-14T12:07:48;6.72;;;3.55;;
70927;SDS011;58587;53.034;18.576;2023-06-14T12:10:15;6.43;;;4.20;;
70927;SDS011;58587;53.034;18.576;2023-06-14T12:12:41;8.80;;;3.70;;
70927;SDS011;58587;53.034;18.576;2023-06-14T12:15:07;8.50;;;4.38;;
70927;SDS011;58587;53.034;18.576;2023-06-14T12:17:34;8.77;;;4.05;;
70927;SDS011;58587;53.034;18.576;2023-06-14T12:20:04;6.43;;;3.77;;
70927;SDS011;58587;53.034;18.576;2023-06-14T12:22:51;10.32;;;4.20;;
70927;SDS011;58587;53.034;18.576;2023-06-14T12:25:51;7.15;;;4.10;;
70927;SDS011;58587;53.034;18.576;2023-06-14T12:28:09;6.65;;;3.83;;
70927;SDS011;58587;53.034;18.576;2023-06-14T12:30:36;6.70;;;4.30;;
70927;SDS011;58587;53.034;18.576;2023-06-14T12:33:02;5.68;;;4.18;;
70927;SDS011;58587;53.034;18.576;2023-06-14T12:35:31;6.20;;;3.50;;
70927;SDS011;58587;53.034;18.576;2023-06-14T12:37:56;7.00;;;3.63;;
70927;SDS011;58587;53.034;18.576;2023-06-14T12:40:22;7.00;;;3.60;;
70927;SDS011;58587;53.034;18.576;2023-06-14T12:42:48;5.75;;;3.70;;
70927;SDS011;58587;53.034;18.576;2023-06-14T12:45:14;7.73;;;3.33;;
70927;SDS011;58587;53.034;18.576;2023-06-14T12:47:40;7.30;;;3.40;;
70927;SDS011;58587;53.034;18.576;2023-06-14T12:50:05;5.05;;;3.42;;
70927;SDS011;58587;53.034;18.576;2023-06-14T12:52:31;4.33;;;3.10;;
70927;SDS011;58587;53.034;18.576;2023-06-14T12:55:00;6.85;;;3.10;;
70927;SDS011;58587;53.034;18.576;2023-06-14T12:57:26;4.40;;;3.07;;
70927;SDS011;58587;53.034;18.576;2023-06-14T12:59:51;6.33;;;2.97;;
70927;SDS011;58587;53.034;18.576;2023-06-14T13:02:17;3.53;;;3.03;;
70927;SDS011;58587;53.034;18.576;2023-06-14T13:04:43;6.90;;;3.40;;
70927;SDS011;58587;53.034;18.576;2023-06-14T13:07:09;5.10;;;3.30;;
70927;SDS011;58587;53.034;18.576;2023-06-14T13:09:35;5.80;;;3.22;;
70927;SDS011;58587;53.034;18.576;2023-06-14T13:12:01;4.40;;;2.70;;
70927;SDS011;58587;53.034;18.576;2023-06-14T13:14:27;4.38;;;2.90;;
70927;SDS011;58587;53.034;18.576;2023-06-14T13:16:52;5.27;;;2.53;;
70927;SDS011;58587;53.034;18.576;2023-06-14T13:19:17;6.13;;;3.00;;
70927;SDS011;58587;53.034;18.576;2023-06-14T13:21:43;3.83;;;2.87;;
70927;SDS011;58587;53.034;18.576;2023-06-14T13:24:08;5.73;;;2.27;;
70927;SDS011;58587;53.034;18.576;2023-06-14T13:26:33;5.50;;;1.90;;
70927;SDS011;58587;53.034;18.576;2023-06-14T13:28:59;5.10;;;2.22;;
70927;SDS011;58587;53.034;18.576;2023-06-14T13:31:24;5.23;;;2.47;;
70927;SDS011;58587;53.034;18.576;2023-06-14T13:33:50;4.07;;;2.07;;
70927;SDS011;58587;53.034;18.576;2023-06-14T13:36:15;3.73;;;2.43;;
70927;SDS011;58587;53.034;18.576;2023-06-14T13:38:41;3.90;;;2.30;;
70927;SDS011;58587;53.034;18.576;2023-06-14T13:41:06;4.70;;;2.23;;
70927;SDS011;58587;53.034;18.576;2023-06-14T13:43:31;4.27;;;2.40;;
70927;SDS011;58587;53.034;18.576;2023-06-14T13:45:57;6.13;;;2.47;;
70927;SDS011;58587;53.034;18.576;2023-06-14T13:48:22;4.03;;;2.40;;
70927;SDS011;58587;53.034;18.576;2023-06-14T13:50:47;4.67;;;2.40;;
70927;SDS011;58587;53.034;18.576;2023-06-14T13:53:13;2.80;;;2.30;;
70927;SDS011;58587;53.034;18.576;2023-06-14T13:55:39;5.13;;;3.10;;
70927;SDS011;58587;53.034;18.576;2023-06-14T13:58:04;2.77;;;2.40;;
70927;SDS011;58587;53.034;18.576;2023-06-14T14:00:29;4.00;;;2.60;;
70927;SDS011;58587;53.034;18.576;2023-06-14T14:02:55;3.90;;;2.93;;
70927;SDS011;58587;53.034;18.576;2023-06-14T14:05:22;6.05;;;2.80;;
70927;SDS011;58587;53.034;18.576;2023-06-14T14:07:51;4.00;;;3.20;;
70927;SDS011;58587;53.034;18.576;2023-06-14T14:10:17;9.75;;;2.97;;
70927;SDS011;58587;53.034;18.576;2023-06-14T14:12:45;6.57;;;3.58;;
70927;SDS011;58587;53.034;18.576;2023-06-14T14:15:11;4.53;;;2.90;;
70927;SDS011;58587;53.034;18.576;2023-06-14T14:17:37;3.60;;;2.88;;
70927;SDS011;58587;53.034;18.576;2023-06-14T14:20:03;4.90;;;3.20;;
70927;SDS011;58587;53.034;18.576;2023-06-14T14:22:29;7.50;;;3.40;;
70927;SDS011;58587;53.034;18.576;2023-06-14T14:24:54;7.00;;;3.50;;
70927;SDS011;58587;53.034;18.576;2023-06-14T14:27:20;8.57;;;4.47;;
70927;SDS011;58587;53.034;18.576;2023-06-14T14:29:45;6.37;;;3.70;;
70927;SDS011;58587;53.034;18.576;2023-06-14T14:32:10;7.03;;;3.57;;
70927;SDS011;58587;53.034;18.576;2023-06-14T14:34:38;6.65;;;3.50;;
70927;SDS011;58587;53.034;18.576;2023-06-14T14:37:04;5.80;;;3.30;;
70927;SDS011;58587;53.034;18.576;2023-06-14T14:39:29;6.03;;;3.60;;
70927;SDS011;58587;53.034;18.576;2023-06-14T14:41:55;6.53;;;3.90;;
70927;SDS011;58587;53.034;18.576;2023-06-14T14:44:21;6.80;;;3.83;;
70927;SDS011;58587;53.034;18.576;2023-06-14T14:46:46;7.50;;;3.55;;
70927;SDS011;58587;53.034;18.576;2023-06-14T14:49:11;5.43;;;3.63;;
70927;SDS011;58587;53.034;18.576;2023-06-14T14:51:37;4.80;;;3.77;;
70927;SDS011;58587;53.034;18.576;2023-06-14T14:54:03;5.78;;;3.92;;
70927;SDS011;58587;53.034;18.576;2023-06-14T14:56:29;5.82;;;3.70;;
70927;SDS011;58587;53.034;18.576;2023-06-14T14:58:54;6.87;;;3.70;;
70927;SDS011;58587;53.034;18.576;2023-06-14T15:01:19;9.30;;;4.50;;
70927;SDS011;58587;53.034;18.576;2023-06-14T15:03:45;8.47;;;4.33;;
70927;SDS011;58587;53.034;18.576;2023-06-14T15:06:10;5.93;;;4.07;;
70927;SDS011;58587;53.034;18.576;2023-06-14T15:08:36;6.43;;;4.13;;
70927;SDS011;58587;53.034;18.576;2023-06-14T15:11:01;6.47;;;4.00;;
70927;SDS011;58587;53.034;18.576;2023-06-14T15:13:27;5.82;;;3.90;;
70927;SDS011;58587;53.034;18.576;2023-06-14T15:15:53;6.10;;;3.65;;
70927;SDS011;58587;53.034;18.576;2023-06-14T15:18:18;5.00;;;4.30;;
70927;SDS011;58587;53.034;18.576;2023-06-14T15:20:45;8.83;;;3.67;;
70927;SDS011;58587;53.034;18.576;2023-06-14T15:23:11;9.07;;;4.45;;
70927;SDS011;58587;53.034;18.576;2023-06-14T15:25:36;6.07;;;3.87;;
70927;SDS011;58587;53.034;18.576;2023-06-14T15:28:02;5.80;;;3.70;;
70927;SDS011;58587;53.034;18.576;2023-06-14T15:30:31;8.43;;;4.30;;
70927;SDS011;58587;53.034;18.576;2023-06-14T15:32:57;4.97;;;3.70;;
70927;SDS011;58587;53.034;18.576;2023-06-14T15:35:23;6.03;;;4.20;;
70927;SDS011;58587;53.034;18.576;2023-06-14T15:37:48;6.77;;;4.20;;
70927;SDS011;58587;53.034;18.576;2023-06-14T15:40:14;5.33;;;4.23;;
70927;SDS011;58587;53.034;18.576;2023-06-14T15:42:40;5.97;;;3.80;;
70927;SDS011;58587;53.034;18.576;2023-06-14T15:45:05;10.37;;;6.03;;
70927;SDS011;58587;53.034;18.576;2023-06-14T15:47:31;9.27;;;4.70;;
70927;SDS011;58587;53.034;18.576;2023-06-14T15:49:56;6.03;;;4.47;;
70927;SDS011;58587;53.034;18.576;2023-06-14T15:52:22;6.93;;;4.13;;
70927;SDS011;58587;53.034;18.576;2023-06-14T15:54:47;6.50;;;3.87;;
70927;SDS011;58587;53.034;18.576;2023-06-14T15:57:12;8.37;;;4.47;;
70927;SDS011;58587;53.034;18.576;2023-06-14T15:59:38;10.37;;;5.03;;
70927;SDS011;58587;53.034;18.576;2023-06-14T16:02:03;6.90;;;4.80;;
70927;SDS011;58587;53.034;18.576;2023-06-14T16:04:29;12.93;;;4.80;;
70927;SDS011;58587;53.034;18.576;2023-06-14T16:06:54;7.90;;;5.00;;
70927;SDS011;58587;53.034;18.576;2023-06-14T16:09:20;8.20;;;5.23;;
70927;SDS011;58587;53.034;18.576;2023-06-14T16:11:45;9.63;;;5.68;;
70927;SDS011;58587;53.034;18.576;2023-06-14T16:14:11;10.10;;;6.10;;
70927;SDS011;58587;53.034;18.576;2023-06-14T16:16:36;8.23;;;5.33;;
70927;SDS011;58587;53.034;18.576;2023-06-14T16:19:01;8.13;;;5.40;;
70927;SDS011;58587;53.034;18.576;2023-06-14T16:21:27;9.07;;;5.20;;
70927;SDS011;58587;53.034;18.576;2023-06-14T16:23:52;8.67;;;5.83;;
70927;SDS011;58587;53.034;18.576;2023-06-14T16:26:18;8.55;;;5.88;;
70927;SDS011;58587;53.034;18.576;2023-06-14T16:28:43;6.77;;;5.13;;
70927;SDS011;58587;53.034;18.576;2023-06-14T16:31:12;7.97;;;5.40;;
70927;SDS011;58587;53.034;18.576;2023-06-14T16:33:42;11.05;;;5.43;;
70927;SDS011;58587;53.034;18.576;2023-06-14T16:36:08;9.90;;;5.70;;
70927;SDS011;58587;53.034;18.576;2023-06-14T16:38:33;13.37;;;5.63;;
70927;SDS011;58587;53.034;18.576;2023-06-14T16:40:59;8.80;;;5.70;;
70927;SDS011;58587;53.034;18.576;2023-06-14T16:43:24;10.18;;;5.80;;
70927;SDS011;58587;53.034;18.576;2023-06-14T16:45:50;9.40;;;5.60;;
70927;SDS011;58587;53.034;18.576;2023-06-14T16:48:15;11.50;;;5.60;;
70927;SDS011;58587;53.034;18.576;2023-06-14T16:50:41;9.53;;;5.90;;
70927;SDS011;58587;53.034;18.576;2023-06-14T16:53:06;9.98;;;6.35;;
70927;SDS011;58587;53.034;18.576;2023-06-14T16:55:31;9.90;;;5.97;;
70927;SDS011;58587;53.034;18.576;2023-06-14T16:57:59;7.68;;;5.85;;
70927;SDS011;58587;53.034;18.576;2023-06-14T17:00:24;14.10;;;7.20;;
70927;SDS011;58587;53.034;18.576;2023-06-14T17:02:51;8.57;;;6.35;;
70927;SDS011;58587;53.034;18.576;2023-06-14T17:05:18;11.05;;;6.25;;
70927;SDS011;58587;53.034;18.576;2023-06-14T17:07:43;8.23;;;5.93;;
70927;SDS011;58587;53.034;18.576;2023-06-14T17:10:08;9.87;;;6.17;;
70927;SDS011;58587;53.034;18.576;2023-06-14T17:12:34;9.53;;;6.40;;
70927;SDS011;58587;53.034;18.576;2023-06-14T17:15:00;10.52;;;7.55;;
70927;SDS011;58587;53.034;18.576;2023-06-14T17:17:26;10.30;;;7.30;;
70927;SDS011;58587;53.034;18.576;2023-06-14T17:19:51;9.40;;;6.97;;
70927;SDS011;58587;53.034;18.576;2023-06-14T17:22:17;8.97;;;6.60;;
70927;SDS011;58587;53.034;18.576;2023-06-14T17:24:42;8.90;;;6.70;;
70927;SDS011;58587;53.034;18.576;2023-06-14T17:27:08;9.45;;;6.95;;
70927;SDS011;58587;53.034;18.576;2023-06-14T17:29:33;10.10;;;6.20;;
70927;SDS011;58587;53.034;18.576;2023-06-14T17:31:59;9.30;;;6.40;;
70927;SDS011;58587;53.034;18.576;2023-06-14T17:34:24;12.70;;;7.30;;
70927;SDS011;58587;53.034;18.576;2023-06-14T17:36:50;11.07;;;6.80;;
70927;SDS011;58587;53.034;18.576;2023-06-14T17:39:16;9.70;;;6.50;;
70927;SDS011;58587;53.034;18.576;2023-06-14T17:41:42;11.40;;;6.80;;
70927;SDS011;58587;53.034;18.576;2023-06-14T17:44:08;12.00;;;6.93;;
70927;SDS011;58587;53.034;18.576;2023-06-14T17:46:34;11.75;;;7.50;;
70927;SDS011;58587;53.034;18.576;2023-06-14T17:48:59;12.47;;;6.97;;
70927;SDS011;58587;53.034;18.576;2023-06-14T17:51:25;10.87;;;7.43;;
70927;SDS011;58587;53.034;18.576;2023-06-14T17:53:50;13.07;;;7.30;;
70927;SDS011;58587;53.034;18.576;2023-06-14T17:56:16;11.00;;;7.13;;
70927;SDS011;58587;53.034;18.576;2023-06-14T17:58:43;12.05;;;7.47;;
70927;SDS011;58587;53.034;18.576;2023-06-14T18:01:08;8.93;;;6.67;;
70927;SDS011;58587;53.034;18.576;2023-06-14T18:03:33;9.97;;;7.63;;
70927;SDS011;58587;53.034;18.576;2023-06-14T18:05:58;13.30;;;7.73;;
70927;SDS011;58587;53.034;18.576;2023-06-14T18:08:25;11.05;;;7.13;;
70927;SDS011;58587;53.034;18.576;2023-06-14T18:10:50;10.00;;;7.73;;
70927;SDS011;58587;53.034;18.576;2023-06-14T18:13:16;10.33;;;7.50;;
70927;SDS011;58587;53.034;18.576;2023-06-14T18:15:41;11.87;;;7.40;;
70927;SDS011;58587;53.034;18.576;2023-06-14T18:18:06;11.85;;;7.22;;
70927;SDS011;58587;53.034;18.576;2023-06-14T18:20:32;9.67;;;6.90;;
70927;SDS011;58587;53.034;18.576;2023-06-14T18:22:57;13.33;;;7.67;;
70927;SDS011;58587;53.034;18.576;2023-06-14T18:25:23;16.37;;;8.40;;
70927;SDS011;58587;53.034;18.576;2023-06-14T18:27:48;12.93;;;8.57;;
70927;SDS011;58587;53.034;18.576;2023-06-14T18:30:14;10.15;;;7.40;;
70927;SDS011;58587;53.034;18.576;2023-06-14T18:32:39;10.95;;;8.23;;
70927;SDS011;58587;53.034;18.576;2023-06-14T18:35:06;14.03;;;8.43;;
70927;SDS011;58587;53.034;18.576;2023-06-14T18:37:32;10.77;;;8.52;;
70927;SDS011;58587;53.034;18.576;2023-06-14T18:39:58;12.60;;;8.57;;
70927;SDS011;58587;53.034;18.576;2023-06-14T18:42:23;12.27;;;8.00;;
70927;SDS011;58587;53.034;18.576;2023-06-14T18:44:50;12.07;;;8.38;;
70927;SDS011;58587;53.034;18.576;2023-06-14T18:47:15;12.07;;;7.63;;
70927;SDS011;58587;53.034;18.576;2023-06-14T18:49:40;14.23;;;8.60;;
70927;SDS011;58587;53.034;18.576;2023-06-14T18:52:06;12.80;;;7.77;;
70927;SDS011;58587;53.034;18.576;2023-06-14T18:54:33;14.02;;;8.95;;
70927;SDS011;58587;53.034;18.576;2023-06-14T18:56:58;13.07;;;8.17;;
70927;SDS011;58587;53.034;18.576;2023-06-14T18:59:24;15.77;;;8.90;;
70927;SDS011;58587;53.034;18.576;2023-06-14T19:01:50;14.20;;;10.23;;
70927;SDS011;58587;53.034;18.576;2023-06-14T19:04:15;17.13;;;10.63;;
70927;SDS011;58587;53.034;18.576;2023-06-14T19:06:41;13.70;;;9.43;;
70927;SDS011;58587;53.034;18.576;2023-06-14T19:09:06;14.00;;;8.40;;
70927;SDS011;58587;53.034;18.576;2023-06-14T19:11:31;13.30;;;9.30;;
70927;SDS011;58587;53.034;18.576;2023-06-14T19:13:57;11.37;;;8.77;;
70927;SDS011;58587;53.034;18.576;2023-06-14T19:16:22;13.00;;;8.70;;
70927;SDS011;58587;53.034;18.576;2023-06-14T19:18:47;15.13;;;9.10;;
70927;SDS011;58587;53.034;18.576;2023-06-14T19:21:13;12.27;;;9.20;;
70927;SDS011;58587;53.034;18.576;2023-06-14T19:23:38;11.43;;;8.87;;
70927;SDS011;58587;53.034;18.576;2023-06-14T19:26:05;12.50;;;8.95;;
70927;SDS011;58587;53.034;18.576;2023-06-14T19:28:31;13.53;;;8.80;;
70927;SDS011;58587;53.034;18.576;2023-06-14T19:30:59;13.35;;;9.60;;
70927;SDS011;58587;53.034;18.576;2023-06-14T19:33:24;14.10;;;9.23;;
70927;SDS011;58587;53.034;18.576;2023-06-14T19:35:49;13.55;;;9.32;;
70927;SDS011;58587;53.034;18.576;2023-06-14T19:38:15;12.17;;;9.57;;
70927;SDS011;58587;53.034;18.576;2023-06-14T19:40:41;13.40;;;9.77;;
70927;SDS011;58587;53.034;18.576;2023-06-14T19:43:06;17.23;;;9.40;;
70927;SDS011;58587;53.034;18.576;2023-06-14T19:45:32;11.00;;;8.27;;
70927;SDS011;58587;53.034;18.576;2023-06-14T19:47:57;13.70;;;8.47;;
70927;SDS011;58587;53.034;18.576;2023-06-14T19:50:23;14.33;;;9.50;;
70927;SDS011;58587;53.034;18.576;2023-06-14T19:52:48;12.10;;;8.87;;
70927;SDS011;58587;53.034;18.576;2023-06-14T19:55:13;12.47;;;8.10;;
70927;SDS011;58587;53.034;18.576;2023-06-14T19:57:40;11.38;;;7.10;;
70927;SDS011;58587;53.034;18.576;2023-06-14T20:00:05;10.40;;;7.83;;
70927;SDS011;58587;53.034;18.576;2023-06-14T20:02:32;9.65;;;6.40;;
70927;SDS011;58587;53.034;18.576;2023-06-14T20:04:58;9.23;;;6.97;;
70927;SDS011;58587;53.034;18.576;2023-06-14T20:07:23;8.77;;;6.30;;
70927;SDS011;58587;53.034;18.576;2023-06-14T20:09:49;10.83;;;6.30;;
70927;SDS011;58587;53.034;18.576;2023-06-14T20:12:14;10.85;;;6.38;;
70927;SDS011;58587;53.034;18.576;2023-06-14T20:14:40;8.77;;;5.93;;
70927;SDS011;58587;53.034;18.576;2023-06-14T20:17:05;10.57;;;6.40;;
70927;SDS011;58587;53.034;18.576;2023-06-14T20:19:30;9.93;;;6.73;;
70927;SDS011;58587;53.034;18.576;2023-06-14T20:21:56;11.20;;;6.60;;
70927;SDS011;58587;53.034;18.576;2023-06-14T20:24:21;9.77;;;6.37;;
70927;SDS011;58587;53.034;18.576;2023-06-14T20:26:47;11.27;;;6.83;;
70927;SDS011;58587;53.034;18.576;2023-06-14T20:29:13;12.27;;;7.03;;
70927;SDS011;58587;53.034;18.576;2023-06-14T20:31:38;12.40;;;7.40;;
70927;SDS011;58587;53.034;18.576;2023-06-14T20:34:04;12.43;;;7.00;;
70927;SDS011;58587;53.034;18.576;2023-06-14T20:36:29;15.73;;;7.47;;
70927;SDS011;58587;53.034;18.576;2023-06-14T20:38:55;10.68;;;6.88;;
70927;SDS011;58587;53.034;18.576;2023-06-14T20:41:20;11.33;;;7.00;;
70927;SDS011;58587;53.034;18.576;2023-06-14T20:43:46;11.87;;;7.13;;
70927;SDS011;58587;53.034;18.576;2023-06-14T20:46:13;10.98;;;6.72;;
70927;SDS011;58587;53.034;18.576;2023-06-14T20:48:39;8.15;;;5.57;;
70927;SDS011;58587;53.034;18.576;2023-06-14T20:51:04;15.87;;;6.10;;
70927;SDS011;58587;53.034;18.576;2023-06-14T20:53:29;11.03;;;6.23;;
70927;SDS011;58587;53.034;18.576;2023-06-14T20:55:55;10.40;;;5.27;;
70927;SDS011;58587;53.034;18.576;2023-06-14T20:58:20;14.07;;;5.50;;
70927;SDS011;58587;53.034;18.576;2023-06-14T21:00:45;8.40;;;5.23;;
70927;SDS011;58587;53.034;18.576;2023-06-14T21:03:11;7.03;;;4.80;;
70927;SDS011;58587;53.034;18.576;2023-06-14T21:05:36;9.57;;;4.67;;
70927;SDS011;58587;53.034;18.576;2023-06-14T21:08:02;9.20;;;5.10;;
70927;SDS011;58587;53.034;18.576;2023-06-14T21:10:27;7.30;;;4.93;;
70927;SDS011;58587;53.034;18.576;2023-06-14T21:12:55;9.07;;;5.23;;
70927;SDS011;58587;53.034;18.576;2023-06-14T21:15:21;9.57;;;5.43;;
70927;SDS011;58587;53.034;18.576;2023-06-14T21:17:53;7.18;;;4.97;;
70927;SDS011;58587;53.034;18.576;2023-06-14T21:20:20;10.05;;;5.50;;
70927;SDS011;58587;53.034;18.576;2023-06-14T21:22:45;6.97;;;4.93;;
70927;SDS011;58587;53.034;18.576;2023-06-14T21:25:15;6.78;;;4.63;;
70927;SDS011;58587;53.034;18.576;2023-06-14T21:27:40;5.20;;;4.07;;
70927;SDS011;58587;53.034;18.576;2023-06-14T21:30:06;6.53;;;4.50;;
70927;SDS011;58587;53.034;18.576;2023-06-14T21:32:33;6.78;;;4.80;;
70927;SDS011;58587;53.034;18.576;2023-06-14T21:35:00;8.30;;;4.57;;
70927;SDS011;58587;53.034;18.576;2023-06-14T21:37:25;8.10;;;5.17;;
70927;SDS011;58587;53.034;18.576;2023-06-14T21:39:51;7.17;;;4.53;;
70927;SDS011;58587;53.034;18.576;2023-06-14T21:42:16;6.07;;;4.40;;
70927;SDS011;58587;53.034;18.576;2023-06-14T21:44:42;8.87;;;4.60;;
70927;SDS011;58587;53.034;18.576;2023-06-14T21:47:09;8.38;;;4.72;;
70927;SDS011;58587;53.034;18.576;2023-06-14T21:49:36;7.23;;;4.60;;
70927;SDS011;58587;53.034;18.576;2023-06-14T21:52:02;6.35;;;4.80;;
70927;SDS011;58587;53.034;18.576;2023-06-14T21:54:28;6.65;;;4.47;;
70927;SDS011;58587;53.034;18.576;2023-06-14T21:56:53;8.30;;;4.67;;
70927;SDS011;58587;53.034;18.576;2023-06-14T21:59:19;8.10;;;4.50;;
70927;SDS011;58587;53.034;18.576;2023-06-14T22:01:44;6.03;;;4.67;;
70927;SDS011;58587;53.034;18.576;2023-06-14T22:04:10;7.37;;;4.70;;
70927;SDS011;58587;53.034;18.576;2023-06-14T22:06:35;7.20;;;4.53;;
70927;SDS011;58587;53.034;18.576;2023-06-14T22:09:01;8.00;;;4.70;;
70927;SDS011;58587;53.034;18.576;2023-06-14T22:11:26;9.20;;;5.07;;
70927;SDS011;58587;53.034;18.576;2023-06-14T22:13:59;7.00;;;4.70;;
70927;SDS011;58587;53.034;18.576;2023-06-14T22:16:25;8.85;;;5.22;;
70927;SDS011;58587;53.034;18.576;2023-06-14T22:18:51;8.27;;;4.70;;
70927;SDS011;58587;53.034;18.576;2023-06-14T22:21:17;6.68;;;4.50;;
70927;SDS011;58587;53.034;18.576;2023-06-14T22:23:44;5.35;;;4.40;;
70927;SDS011;58587;53.034;18.576;2023-06-14T22:26:09;6.63;;;4.77;;
70927;SDS011;58587;53.034;18.576;2023-06-14T22:28:35;6.18;;;4.70;;
70927;SDS011;58587;53.034;18.576;2023-06-14T22:31:07;7.73;;;5.03;;
70927;SDS011;58587;53.034;18.576;2023-06-14T22:33:33;9.35;;;4.72;;
70927;SDS011;58587;53.034;18.576;2023-06-14T22:36:05;6.57;;;4.40;;
70927;SDS011;58587;53.034;18.576;2023-06-14T22:38:33;7.93;;;4.68;;
70927;SDS011;58587;53.034;18.576;2023-06-14T22:40:58;10.43;;;4.93;;
70927;SDS011;58587;53.034;18.576;2023-06-14T22:43:23;8.60;;;4.80;;
70927;SDS011;58587;53.034;18.576;2023-06-14T22:45:49;7.10;;;5.15;;
70927;SDS011;58587;53.034;18.576;2023-06-14T22:48:16;6.60;;;4.73;;
70927;SDS011;58587;53.034;18.576;2023-06-14T22:50:41;7.25;;;4.72;;
70927;SDS011;58587;53.034;18.576;2023-06-14T22:53:07;7.10;;;4.67;;
70927;SDS011;58587;53.034;18.576;2023-06-14T22:55:32;8.20;;;4.33;;
70927;SDS011;58587;53.034;18.576;2023-06-14T22:57:58;7.83;;;4.47;;
70927;SDS011;58587;53.034;18.576;2023-06-14T23:00:25;9.20;;;4.90;;
70927;SDS011;58587;53.034;18.576;2023-06-14T23:02:50;6.83;;;5.00;;
70927;SDS011;58587;53.034;18.576;2023-06-14T23:05:15;7.05;;;4.53;;
70927;SDS011;58587;53.034;18.576;2023-06-14T23:07:42;6.73;;;5.07;;
70927;SDS011;58587;53.034;18.576;2023-06-14T23:10:08;6.93;;;4.90;;
70927;SDS011;58587;53.034;18.576;2023-06-14T23:12:33;10.23;;;5.10;;
70927;SDS011;58587;53.034;18.576;2023-06-14T23:14:59;8.55;;;5.15;;
70927;SDS011;58587;53.034;18.576;2023-06-14T23:17:27;9.10;;;5.40;;
70927;SDS011;58587;53.034;18.576;2023-06-14T23:19:56;8.73;;;5.25;;
70927;SDS011;58587;53.034;18.576;2023-06-14T23:22:26;11.00;;;5.47;;
70927;SDS011;58587;53.034;18.576;2023-06-14T23:24:52;12.23;;;5.57;;
70927;SDS011;58587;53.034;18.576;2023-06-14T23:27:17;8.60;;;5.47;;
70927;SDS011;58587;53.034;18.576;2023-06-14T23:29:48;8.88;;;5.85;;
70927;SDS011;58587;53.034;18.576;2023-06-14T23:32:14;11.40;;;6.05;;
70927;SDS011;58587;53.034;18.576;2023-06-14T23:34:41;7.47;;;5.77;;
70927;SDS011;58587;53.034;18.576;2023-06-14T23:37:08;9.43;;;6.50;;
70927;SDS011;58587;53.034;18.576;2023-06-14T23:39:33;10.20;;;6.63;;
70927;SDS011;58587;53.034;18.576;2023-06-14T23:41:58;10.13;;;6.60;;
70927;SDS011;58587;53.034;18.576;2023-06-14T23:44:24;8.17;;;5.97;;
70927;SDS011;58587;53.034;18.576;2023-06-14T23:46:49;9.87;;;6.43;;
70927;SDS011;58587;53.034;18.576;2023-06-14T23:49:18;10.73;;;6.40;;
70927;SDS011;58587;53.034;18.576;2023-06-14T23:51:44;10.37;;;6.73;;
70927;SDS011;58587;53.034;18.576;2023-06-14T23:54:09;11.70;;;6.90;;
70927;SDS011;58587;53.034;18.576;2023-06-14T23:56:37;11.93;;;7.35;;
70927;SDS011;58587;53.034;18.576;2023-06-14T23:59:04;9.68;;;7.22;;
